createdAt,value
2022-11-04T00:01:39.467Z,10.60
2022-11-04T00:04:06.954Z,10.50
2022-11-04T00:06:33.979Z,10.50
2022-11-04T00:09:00.895Z,10.50
2022-11-04T00:11:46.700Z,10.50
2022-11-04T00:14:14.541Z,10.50
2022-11-04T00:17:10.825Z,10.50
2022-11-04T00:19:56.272Z,10.50
2022-11-04T00:22:41.595Z,10.50
2022-11-04T00:25:28.284Z,10.40
2022-11-04T00:28:22.999Z,10.40
2022-11-04T00:30:53.008Z,10.40
2022-11-04T00:33:25.950Z,10.40
2022-11-04T00:35:57.324Z,10.50
2022-11-04T00:38:25.559Z,10.40
2022-11-04T00:40:53.087Z,10.40
2022-11-04T00:43:20.099Z,10.40
2022-11-04T00:45:47.229Z,10.40
2022-11-04T00:48:14.406Z,10.40
2022-11-04T00:50:42.141Z,10.40
2022-11-04T00:53:09.346Z,10.40
2022-11-04T00:55:36.586Z,10.40
2022-11-04T00:58:03.631Z,10.40
2022-11-04T01:00:30.626Z,10.50
2022-11-04T01:02:57.944Z,10.50
2022-11-04T01:05:25.046Z,10.40
2022-11-04T01:10:19.366Z,10.20
2022-11-04T01:12:46.272Z,10.20
2022-11-04T01:15:13.304Z,10.20
2022-11-04T01:17:40.229Z,10.10
2022-11-04T01:20:07.509Z,10.20
2022-11-04T01:22:34.416Z,10.10
2022-11-04T01:25:01.636Z,10.10
2022-11-04T01:27:28.577Z,10.10
2022-11-04T01:29:58.024Z,10.10
2022-11-04T01:32:25.058Z,10.10
2022-11-04T01:34:52.132Z,10.20
2022-11-04T01:37:19.081Z,10.20
2022-11-04T01:39:46.029Z,10.20
2022-11-04T01:42:13.559Z,10.30
2022-11-04T01:44:47.958Z,10.20
2022-11-04T01:47:17.852Z,10.20
2022-11-04T01:49:47.517Z,10.10
2022-11-04T01:52:18.062Z,10.00
2022-11-04T01:54:46.408Z,10.00
2022-11-04T01:57:17.672Z,9.90
2022-11-04T01:59:45.697Z,10.00
2022-11-04T02:02:13.051Z,10.10
2022-11-04T02:04:40.661Z,10.00
2022-11-04T02:07:08.967Z,10.00
2022-11-04T02:09:37.382Z,10.00
2022-11-04T02:12:23.221Z,10.10
2022-11-04T02:14:50.881Z,10.10
2022-11-04T02:17:18.254Z,10.10
2022-11-04T02:19:45.472Z,10.10
2022-11-04T02:22:23.612Z,10.10
2022-11-04T02:24:53.888Z,10.10
2022-11-04T02:27:26.266Z,10.10
2022-11-04T02:30:01.553Z,10.00
2022-11-04T02:32:39.254Z,10.00
2022-11-04T02:35:09.848Z,10.00
2022-11-04T02:37:36.845Z,10.00
2022-11-04T02:40:10.097Z,10.00
2022-11-04T02:42:45.464Z,10.00
2022-11-04T02:45:19.864Z,10.00
2022-11-04T02:47:50.831Z,9.90
2022-11-04T02:50:23.806Z,9.90
2022-11-04T02:52:58.535Z,9.90
2022-11-04T02:55:28.028Z,10.00
2022-11-04T02:57:56.797Z,10.00
2022-11-04T03:00:23.899Z,10.00
2022-11-04T03:02:55.622Z,10.00
2022-11-04T03:05:26.414Z,10.00
2022-11-04T03:07:55.765Z,10.10
2022-11-04T03:10:25.992Z,10.10
2022-11-04T03:13:02.963Z,10.10
2022-11-04T03:15:31.945Z,10.10
2022-11-04T03:18:18.197Z,10.10
2022-11-04T03:20:47.016Z,10.10
2022-11-04T03:23:15.020Z,10.20
2022-11-04T03:25:44.576Z,10.10
2022-11-04T03:28:17.484Z,10.10
2022-11-04T03:30:47.319Z,10.20
2022-11-04T03:33:23.036Z,10.10
2022-11-04T03:35:50.095Z,10.20
2022-11-04T03:38:16.977Z,10.20
2022-11-04T03:40:44.116Z,10.20
2022-11-04T03:43:12.752Z,10.20
2022-11-04T03:45:40.986Z,10.20
2022-11-04T03:48:08.568Z,10.20
2022-11-04T03:50:43.142Z,10.10
2022-11-04T03:53:11.797Z,10.10
2022-11-04T03:55:38.923Z,10.10
2022-11-04T03:58:16.907Z,10.10
2022-11-04T04:00:49.665Z,10.10
2022-11-04T04:03:18.706Z,10.10
2022-11-04T04:05:51.251Z,10.10
2022-11-04T04:08:21.275Z,10.00
2022-11-04T04:11:07.122Z,10.10
2022-11-04T04:14:00.543Z,10.10
2022-11-04T04:16:39.306Z,10.10
2022-11-04T04:19:14.495Z,10.10
2022-11-04T04:22:02.577Z,10.00
2022-11-04T04:24:52.571Z,10.00
2022-11-04T04:27:33.464Z,10.00
2022-11-04T04:30:02.477Z,10.00
2022-11-04T04:32:31.042Z,9.90
2022-11-04T04:35:16.538Z,9.90
2022-11-04T04:37:44.630Z,9.90
2022-11-04T04:40:32.510Z,9.80
2022-11-04T04:43:18.516Z,9.80
2022-11-04T04:45:49.702Z,9.80
2022-11-04T04:48:17.033Z,9.80
2022-11-04T04:50:45.961Z,9.80
2022-11-04T04:53:12.863Z,9.70
2022-11-04T04:55:41.757Z,9.70
2022-11-04T04:58:09.623Z,9.70
2022-11-04T05:00:38.742Z,9.70
2022-11-04T05:03:06.021Z,9.60
2022-11-04T05:05:33.380Z,9.70
2022-11-04T05:08:07.543Z,9.70
2022-11-04T05:10:35.040Z,9.60
2022-11-04T05:13:31.540Z,9.60
2022-11-04T05:16:03.485Z,9.60
2022-11-04T05:18:30.587Z,9.60
2022-11-04T05:20:57.580Z,9.60
2022-11-04T05:23:24.686Z,9.60
2022-11-04T05:25:53.734Z,9.60
2022-11-04T05:28:20.876Z,9.60
2022-11-04T05:30:48.944Z,9.50
2022-11-04T05:33:15.904Z,9.50
2022-11-04T05:35:42.846Z,9.50
2022-11-04T05:38:10.072Z,9.50
2022-11-04T05:40:36.997Z,9.50
2022-11-04T05:43:04.088Z,9.40
2022-11-04T05:45:31.035Z,9.50
2022-11-04T05:48:02.313Z,9.50
2022-11-04T05:50:30.098Z,9.40
2022-11-04T05:52:58.276Z,9.40
2022-11-04T05:55:25.856Z,9.40
2022-11-04T05:57:53.733Z,9.40
2022-11-04T06:00:20.735Z,9.40
2022-11-04T06:02:47.953Z,9.30
2022-11-04T06:05:14.948Z,9.40
2022-11-04T06:07:41.964Z,9.30
2022-11-04T06:10:09.119Z,9.40
2022-11-04T06:12:36.206Z,9.40
2022-11-04T06:15:03.257Z,9.40
2022-11-04T06:17:30.274Z,9.40
2022-11-04T06:19:57.512Z,9.40
2022-11-04T06:22:24.576Z,9.40
2022-11-04T06:24:51.594Z,9.50
2022-11-04T06:27:18.805Z,9.50
2022-11-04T06:29:47.217Z,9.50
2022-11-04T06:32:16.478Z,9.50
2022-11-04T06:34:43.605Z,9.50
2022-11-04T06:37:10.788Z,9.50
2022-11-04T06:39:38.028Z,9.50
2022-11-04T06:42:12.206Z,9.50
2022-11-04T06:44:39.316Z,9.50
2022-11-04T06:47:06.236Z,9.50
2022-11-04T06:49:33.303Z,9.50
2022-11-04T06:52:02.785Z,9.60
2022-11-04T06:54:30.206Z,9.60
2022-11-04T06:56:57.161Z,9.60
2022-11-04T06:59:24.295Z,9.60
2022-11-04T07:01:52.145Z,9.60
2022-11-04T07:04:19.573Z,9.60
2022-11-04T07:06:46.567Z,9.60
2022-11-04T07:09:14.312Z,9.50
2022-11-04T07:11:41.939Z,9.50
2022-11-04T07:14:09.460Z,9.50
2022-11-04T07:16:36.569Z,9.50
2022-11-04T07:19:03.804Z,9.50
2022-11-04T07:21:30.923Z,9.60
2022-11-04T07:23:57.880Z,9.70
2022-11-04T07:26:25.031Z,9.80
2022-11-04T07:28:52.173Z,9.90
2022-11-04T07:31:19.300Z,9.90
2022-11-04T07:33:52.825Z,9.80
2022-11-04T07:36:20.200Z,9.80
2022-11-04T07:38:47.149Z,9.80
2022-11-04T07:41:14.965Z,9.80
2022-11-04T07:43:41.866Z,9.80
2022-11-04T07:46:10.830Z,9.80
2022-11-04T07:48:37.823Z,9.90
2022-11-04T07:51:05.634Z,9.90
2022-11-04T07:53:32.522Z,10.00
2022-11-04T07:56:02.857Z,10.10
2022-11-04T07:58:29.813Z,10.10
2022-11-04T08:01:00.482Z,10.10
2022-11-04T08:03:27.644Z,10.20
2022-11-04T08:05:55.578Z,10.20
2022-11-04T08:08:22.598Z,10.20
2022-11-04T08:10:53.589Z,10.20
2022-11-04T08:13:20.702Z,10.20
2022-11-04T08:15:47.758Z,10.10
2022-11-04T08:18:14.724Z,10.10
2022-11-04T08:20:46.974Z,10.30
2022-11-04T08:23:14.056Z,10.20
2022-11-04T08:25:41.021Z,10.20
2022-11-04T08:28:08.023Z,10.20
2022-11-04T08:30:34.899Z,10.20
2022-11-04T08:33:01.887Z,10.30
2022-11-04T08:35:28.884Z,10.40
2022-11-04T08:37:55.817Z,10.40
2022-11-04T08:40:22.984Z,10.50
2022-11-04T08:42:49.917Z,10.60
2022-11-04T08:45:17.315Z,10.70
2022-11-04T08:47:44.327Z,10.70
2022-11-04T08:50:11.630Z,10.90
2022-11-04T08:52:38.678Z,11.00
2022-11-04T08:55:05.741Z,11.00
2022-11-04T08:57:32.898Z,11.00
2022-11-04T08:59:59.903Z,11.00
2022-11-04T09:02:27.027Z,11.10
2022-11-04T09:04:53.906Z,11.30
2022-11-04T09:07:21.027Z,11.40
2022-11-04T09:09:48.351Z,11.50
2022-11-04T09:12:15.316Z,11.70
2022-11-04T09:14:42.555Z,11.60
2022-11-04T09:17:09.425Z,11.70
